sensor_id;sensor_type;location;lat;lon;timestamp;temperature;humidity
70807;DHT22;58882;52.170;5.386;2023-08-08T00:01:14;20.90;56.60
70807;DHT22;58882;52.170;5.386;2023-08-08T00:03:41;20.90;56.80
70807;DHT22;58882;52.170;5.386;2023-08-08T00:06:08;20.90;56.80
70807;DHT22;58882;52.170;5.386;2023-08-08T00:08:35;20.90;56.90
70807;DHT22;58882;52.170;5.386;2023-08-08T00:11:02;20.80;56.90
70807;DHT22;58882;52.170;5.386;2023-08-08T00:13:29;20.80;57.00
70807;DHT22;58882;52.170;5.386;2023-08-08T00:15:56;20.80;57.20
70807;DHT22;58882;52.170;5.386;2023-08-08T00:18:23;20.80;57.30
70807;DHT22;58882;52.170;5.386;2023-08-08T00:20:50;20.80;57.40
70807;DHT22;58882;52.170;5.386;2023-08-08T00:23:17;20.80;57.50
70807;DHT22;58882;52.170;5.386;2023-08-08T00:25:45;20.80;57.60
70807;DHT22;58882;52.170;5.386;2023-08-08T00:28:17;20.80;57.70
70807;DHT22;58882;52.170;5.386;2023-08-08T00:30:44;20.80;57.80
70807;DHT22;58882;52.170;5.386;2023-08-08T00:33:11;20.70;57.90
70807;DHT22;58882;52.170;5.386;2023-08-08T00:35:38;20.80;58.00
70807;DHT22;58882;52.170;5.386;2023-08-08T00:38:05;20.80;58.10
70807;DHT22;58882;52.170;5.386;2023-08-08T00:40:32;20.80;58.30
70807;DHT22;58882;52.170;5.386;2023-08-08T00:42:59;20.70;58.30
70807;DHT22;58882;52.170;5.386;2023-08-08T00:45:26;20.70;58.50
70807;DHT22;58882;52.170;5.386;2023-08-08T00:47:54;20.70;58.40
70807;DHT22;58882;52.170;5.386;2023-08-08T00:50:21;20.70;58.50
70807;DHT22;58882;52.170;5.386;2023-08-08T00:52:48;20.70;58.70
70807;DHT22;58882;52.170;5.386;2023-08-08T00:55:16;20.70;58.70
70807;DHT22;58882;52.170;5.386;2023-08-08T00:57:43;20.70;58.90
70807;DHT22;58882;52.170;5.386;2023-08-08T01:00:10;20.70;59.00
70807;DHT22;58882;52.170;5.386;2023-08-08T01:02:38;20.70;59.10
70807;DHT22;58882;52.170;5.386;2023-08-08T01:05:07;20.60;59.00
70807;DHT22;58882;52.170;5.386;2023-08-08T01:08:10;20.60;59.10
70807;DHT22;58882;52.170;5.386;2023-08-08T01:10:40;20.60;59.20
70807;DHT22;58882;52.170;5.386;2023-08-08T01:13:18;20.60;59.20
70807;DHT22;58882;52.170;5.386;2023-08-08T01:15:46;20.60;59.20
70807;DHT22;58882;52.170;5.386;2023-08-08T01:18:15;20.70;59.30
70807;DHT22;58882;52.170;5.386;2023-08-08T01:20:43;20.60;59.40
70807;DHT22;58882;52.170;5.386;2023-08-08T01:23:30;20.60;59.50
70807;DHT22;58882;52.170;5.386;2023-08-08T01:25:58;20.60;59.60
70807;DHT22;58882;52.170;5.386;2023-08-08T01:28:26;20.60;59.60
70807;DHT22;58882;52.170;5.386;2023-08-08T01:30:53;20.60;59.80
70807;DHT22;58882;52.170;5.386;2023-08-08T01:33:21;20.60;59.80
70807;DHT22;58882;52.170;5.386;2023-08-08T01:35:54;20.60;59.90
70807;DHT22;58882;52.170;5.386;2023-08-08T01:38:34;20.60;60.00
70807;DHT22;58882;52.170;5.386;2023-08-08T01:41:04;20.60;60.00
70807;DHT22;58882;52.170;5.386;2023-08-08T01:43:33;20.60;60.00
70807;DHT22;58882;52.170;5.386;2023-08-08T01:46:00;20.60;60.10
70807;DHT22;58882;52.170;5.386;2023-08-08T01:48:29;20.60;60.00
70807;DHT22;58882;52.170;5.386;2023-08-08T01:50:56;20.70;60.10
70807;DHT22;58882;52.170;5.386;2023-08-08T01:53:24;20.70;60.10
70807;DHT22;58882;52.170;5.386;2023-08-08T01:55:52;20.70;60.10
70807;DHT22;58882;52.170;5.386;2023-08-08T01:58:19;20.70;60.10
70807;DHT22;58882;52.170;5.386;2023-08-08T02:00:46;20.70;60.20
70807;DHT22;58882;52.170;5.386;2023-08-08T02:03:14;20.60;60.10
70807;DHT22;58882;52.170;5.386;2023-08-08T02:05:42;20.60;60.20
70807;DHT22;58882;52.170;5.386;2023-08-08T02:08:09;20.60;60.30
70807;DHT22;58882;52.170;5.386;2023-08-08T02:10:36;20.70;61.20
70807;DHT22;58882;52.170;5.386;2023-08-08T02:13:03;20.70;60.30
70807;DHT22;58882;52.170;5.386;2023-08-08T02:15:30;20.70;60.30
70807;DHT22;58882;52.170;5.386;2023-08-08T02:17:59;20.70;60.20
70807;DHT22;58882;52.170;5.386;2023-08-08T02:20:27;20.70;60.20
70807;DHT22;58882;52.170;5.386;2023-08-08T02:22:53;20.70;60.10
70807;DHT22;58882;52.170;5.386;2023-08-08T02:25:20;20.70;60.10
70807;DHT22;58882;52.170;5.386;2023-08-08T02:27:47;20.70;60.10
70807;DHT22;58882;52.170;5.386;2023-08-08T02:30:14;20.70;60.10
70807;DHT22;58882;52.170;5.386;2023-08-08T02:32:41;20.70;60.10
70807;DHT22;58882;52.170;5.386;2023-08-08T02:35:08;20.80;60.00
70807;DHT22;58882;52.170;5.386;2023-08-08T02:37:35;20.80;60.00
70807;DHT22;58882;52.170;5.386;2023-08-08T02:40:03;20.70;60.00
70807;DHT22;58882;52.170;5.386;2023-08-08T02:42:31;20.70;60.00
70807;DHT22;58882;52.170;5.386;2023-08-08T02:44:57;20.70;60.00
70807;DHT22;58882;52.170;5.386;2023-08-08T02:47:24;20.70;60.10
70807;DHT22;58882;52.170;5.386;2023-08-08T02:49:52;20.70;60.10
70807;DHT22;58882;52.170;5.386;2023-08-08T02:52:18;20.70;60.10
70807;DHT22;58882;52.170;5.386;2023-08-08T02:54:45;20.70;60.00
70807;DHT22;58882;52.170;5.386;2023-08-08T02:57:13;20.70;60.00
70807;DHT22;58882;52.170;5.386;2023-08-08T02:59:41;20.70;60.10
70807;DHT22;58882;52.170;5.386;2023-08-08T03:02:08;20.70;60.00
70807;DHT22;58882;52.170;5.386;2023-08-08T03:04:37;20.70;60.10
70807;DHT22;58882;52.170;5.386;2023-08-08T03:07:06;20.70;60.30
70807;DHT22;58882;52.170;5.386;2023-08-08T03:09:35;20.70;60.30
70807;DHT22;58882;52.170;5.386;2023-08-08T03:12:02;20.70;60.20
70807;DHT22;58882;52.170;5.386;2023-08-08T03:14:31;20.70;60.10
70807;DHT22;58882;52.170;5.386;2023-08-08T03:16:59;20.70;60.10
70807;DHT22;58882;52.170;5.386;2023-08-08T03:19:27;20.70;60.10
70807;DHT22;58882;52.170;5.386;2023-08-08T03:21:56;20.70;60.00
70807;DHT22;58882;52.170;5.386;2023-08-08T03:24:24;20.70;60.00
70807;DHT22;58882;52.170;5.386;2023-08-08T03:26:51;20.70;60.00
70807;DHT22;58882;52.170;5.386;2023-08-08T03:29:18;20.70;60.00
70807;DHT22;58882;52.170;5.386;2023-08-08T03:31:47;20.70;60.00
70807;DHT22;58882;52.170;5.386;2023-08-08T03:34:15;20.70;60.10
70807;DHT22;58882;52.170;5.386;2023-08-08T03:36:43;20.70;60.10
70807;DHT22;58882;52.170;5.386;2023-08-08T03:39:10;20.70;60.10
70807;DHT22;58882;52.170;5.386;2023-08-08T03:41:38;20.70;60.10
70807;DHT22;58882;52.170;5.386;2023-08-08T03:44:04;20.70;60.90
70807;DHT22;58882;52.170;5.386;2023-08-08T03:46:31;20.70;60.00
70807;DHT22;58882;52.170;5.386;2023-08-08T03:48:58;20.70;60.00
70807;DHT22;58882;52.170;5.386;2023-08-08T03:51:25;20.70;60.00
70807;DHT22;58882;52.170;5.386;2023-08-08T03:53:52;20.70;60.00
70807;DHT22;58882;52.170;5.386;2023-08-08T03:56:19;20.70;60.00
70807;DHT22;58882;52.170;5.386;2023-08-08T03:58:47;20.80;60.00
70807;DHT22;58882;52.170;5.386;2023-08-08T04:01:14;20.70;59.90
70807;DHT22;58882;52.170;5.386;2023-08-08T04:03:41;20.80;59.90
70807;DHT22;58882;52.170;5.386;2023-08-08T04:06:08;20.80;59.80
70807;DHT22;58882;52.170;5.386;2023-08-08T04:08:34;20.80;59.80
70807;DHT22;58882;52.170;5.386;2023-08-08T04:11:02;20.70;59.80
70807;DHT22;58882;52.170;5.386;2023-08-08T04:13:29;20.70;59.70
70807;DHT22;58882;52.170;5.386;2023-08-08T04:15:56;20.80;59.80
70807;DHT22;58882;52.170;5.386;2023-08-08T04:18:23;20.70;59.70
70807;DHT22;58882;52.170;5.386;2023-08-08T04:20:49;20.80;59.70
70807;DHT22;58882;52.170;5.386;2023-08-08T04:23:16;20.70;59.50
70807;DHT22;58882;52.170;5.386;2023-08-08T04:25:44;20.80;59.70
70807;DHT22;58882;52.170;5.386;2023-08-08T04:28:12;20.80;59.60
70807;DHT22;58882;52.170;5.386;2023-08-08T04:30:39;20.70;59.50
70807;DHT22;58882;52.170;5.386;2023-08-08T04:33:05;20.70;59.70
70807;DHT22;58882;52.170;5.386;2023-08-08T04:35:33;20.70;59.50
70807;DHT22;58882;52.170;5.386;2023-08-08T04:37:59;20.70;59.30
70807;DHT22;58882;52.170;5.386;2023-08-08T04:40:26;20.70;59.40
70807;DHT22;58882;52.170;5.386;2023-08-08T04:42:53;20.70;59.40
70807;DHT22;58882;52.170;5.386;2023-08-08T04:45:20;20.70;59.30
70807;DHT22;58882;52.170;5.386;2023-08-08T04:47:48;20.70;59.30
70807;DHT22;58882;52.170;5.386;2023-08-08T04:50:15;20.80;60.30
70807;DHT22;58882;52.170;5.386;2023-08-08T04:52:41;20.80;59.20
70807;DHT22;58882;52.170;5.386;2023-08-08T04:55:09;20.70;59.10
70807;DHT22;58882;52.170;5.386;2023-08-08T04:57:36;20.80;59.20
70807;DHT22;58882;52.170;5.386;2023-08-08T05:00:03;20.80;59.20
70807;DHT22;58882;52.170;5.386;2023-08-08T05:02:32;20.80;59.10
70807;DHT22;58882;52.170;5.386;2023-08-08T05:04:59;20.80;60.00
70807;DHT22;58882;52.170;5.386;2023-08-08T05:07:27;20.80;59.00
70807;DHT22;58882;52.170;5.386;2023-08-08T05:09:54;20.80;58.80
70807;DHT22;58882;52.170;5.386;2023-08-08T05:12:21;20.80;58.50
70807;DHT22;58882;52.170;5.386;2023-08-08T05:14:48;20.90;58.50
70807;DHT22;58882;52.170;5.386;2023-08-08T05:17:15;20.80;58.20
70807;DHT22;58882;52.170;5.386;2023-08-08T05:19:42;20.80;57.80
70807;DHT22;58882;52.170;5.386;2023-08-08T05:22:09;20.90;57.70
70807;DHT22;58882;52.170;5.386;2023-08-08T05:24:36;20.90;57.80
70807;DHT22;58882;52.170;5.386;2023-08-08T05:27:03;20.90;57.40
70807;DHT22;58882;52.170;5.386;2023-08-08T05:29:30;20.90;57.10
70807;DHT22;58882;52.170;5.386;2023-08-08T05:31:57;20.90;57.00
70807;DHT22;58882;52.170;5.386;2023-08-08T05:34:25;20.90;57.10
70807;DHT22;58882;52.170;5.386;2023-08-08T05:36:52;20.90;57.10
70807;DHT22;58882;52.170;5.386;2023-08-08T05:39:38;20.90;56.90
70807;DHT22;58882;52.170;5.386;2023-08-08T05:42:06;20.90;56.70
70807;DHT22;58882;52.170;5.386;2023-08-08T05:44:33;20.90;57.00
70807;DHT22;58882;52.170;5.386;2023-08-08T05:47:00;20.90;57.00
70807;DHT22;58882;52.170;5.386;2023-08-08T05:49:26;21.00;56.90
70807;DHT22;58882;52.170;5.386;2023-08-08T05:51:53;21.00;56.50
70807;DHT22;58882;52.170;5.386;2023-08-08T05:54:20;21.10;56.50
70807;DHT22;58882;52.170;5.386;2023-08-08T05:56:47;21.10;56.30
70807;DHT22;58882;52.170;5.386;2023-08-08T05:59:14;21.10;56.00
70807;DHT22;58882;52.170;5.386;2023-08-08T06:01:41;21.10;55.70
70807;DHT22;58882;52.170;5.386;2023-08-08T06:04:08;21.10;55.90
70807;DHT22;58882;52.170;5.386;2023-08-08T06:06:35;21.10;55.60
70807;DHT22;58882;52.170;5.386;2023-08-08T06:09:02;21.10;55.60
70807;DHT22;58882;52.170;5.386;2023-08-08T06:11:29;21.20;55.40
70807;DHT22;58882;52.170;5.386;2023-08-08T06:13:56;21.20;55.20
70807;DHT22;58882;52.170;5.386;2023-08-08T06:16:23;21.20;55.20
70807;DHT22;58882;52.170;5.386;2023-08-08T06:18:52;21.20;55.00
70807;DHT22;58882;52.170;5.386;2023-08-08T06:21:19;21.20;55.10
70807;DHT22;58882;52.170;5.386;2023-08-08T06:23:45;21.30;54.90
70807;DHT22;58882;52.170;5.386;2023-08-08T06:26:14;21.30;54.70
70807;DHT22;58882;52.170;5.386;2023-08-08T06:28:41;21.30;54.50
70807;DHT22;58882;52.170;5.386;2023-08-08T06:31:08;21.30;54.50
70807;DHT22;58882;52.170;5.386;2023-08-08T06:33:35;21.30;54.30
70807;DHT22;58882;52.170;5.386;2023-08-08T06:36:02;21.30;54.50
70807;DHT22;58882;52.170;5.386;2023-08-08T06:38:30;21.40;54.20
70807;DHT22;58882;52.170;5.386;2023-08-08T06:41:02;21.40;54.20
70807;DHT22;58882;52.170;5.386;2023-08-08T06:43:30;21.40;53.80
70807;DHT22;58882;52.170;5.386;2023-08-08T06:45:57;21.50;53.90
70807;DHT22;58882;52.170;5.386;2023-08-08T06:48:24;21.50;53.60
70807;DHT22;58882;52.170;5.386;2023-08-08T06:50:51;21.50;53.40
70807;DHT22;58882;52.170;5.386;2023-08-08T06:53:18;21.60;53.20
70807;DHT22;58882;52.170;5.386;2023-08-08T06:55:45;21.50;53.20
70807;DHT22;58882;52.170;5.386;2023-08-08T06:58:12;21.50;53.40
70807;DHT22;58882;52.170;5.386;2023-08-08T07:00:39;21.50;53.40
70807;DHT22;58882;52.170;5.386;2023-08-08T07:03:06;21.60;53.10
70807;DHT22;58882;52.170;5.386;2023-08-08T07:05:33;21.70;53.00
70807;DHT22;58882;52.170;5.386;2023-08-08T07:08:00;21.70;52.90
70807;DHT22;58882;52.170;5.386;2023-08-08T07:10:28;21.80;53.10
70807;DHT22;58882;52.170;5.386;2023-08-08T07:12:54;21.90;55.50
70807;DHT22;58882;52.170;5.386;2023-08-08T07:15:21;21.90;54.60
70807;DHT22;58882;52.170;5.386;2023-08-08T07:17:48;22.00;55.50
70807;DHT22;58882;52.170;5.386;2023-08-08T07:20:15;22.10;56.00
70807;DHT22;58882;52.170;5.386;2023-08-08T07:22:44;22.10;56.80
70807;DHT22;58882;52.170;5.386;2023-08-08T07:25:11;22.20;56.90
70807;DHT22;58882;52.170;5.386;2023-08-08T07:27:38;22.20;57.40
70807;DHT22;58882;52.170;5.386;2023-08-08T07:30:05;22.30;57.20
70807;DHT22;58882;52.170;5.386;2023-08-08T07:32:34;22.40;57.80
70807;DHT22;58882;52.170;5.386;2023-08-08T07:35:01;22.60;56.50
70807;DHT22;58882;52.170;5.386;2023-08-08T07:37:29;22.90;56.70
70807;DHT22;58882;52.170;5.386;2023-08-08T07:39:56;23.20;55.90
70807;DHT22;58882;52.170;5.386;2023-08-08T07:42:23;23.50;55.80
70807;DHT22;58882;52.170;5.386;2023-08-08T07:44:50;23.80;55.40
70807;DHT22;58882;52.170;5.386;2023-08-08T07:47:17;24.10;54.90
70807;DHT22;58882;52.170;5.386;2023-08-08T07:49:44;24.40;55.00
70807;DHT22;58882;52.170;5.386;2023-08-08T07:52:11;24.70;54.10
70807;DHT22;58882;52.170;5.386;2023-08-08T07:54:38;24.90;53.40
70807;DHT22;58882;52.170;5.386;2023-08-08T07:57:05;25.10;53.00
70807;DHT22;58882;52.170;5.386;2023-08-08T07:59:32;25.30;52.70
70807;DHT22;58882;52.170;5.386;2023-08-08T08:01:58;25.30;51.30
70807;DHT22;58882;52.170;5.386;2023-08-08T08:04:25;25.30;50.40
70807;DHT22;58882;52.170;5.386;2023-08-08T08:06:52;25.30;51.10
70807;DHT22;58882;52.170;5.386;2023-08-08T08:09:19;25.20;51.80
70807;DHT22;58882;52.170;5.386;2023-08-08T08:11:46;25.40;51.90
70807;DHT22;58882;52.170;5.386;2023-08-08T08:14:13;25.50;51.50
70807;DHT22;58882;52.170;5.386;2023-08-08T08:16:40;25.70;51.40
70807;DHT22;58882;52.170;5.386;2023-08-08T08:19:07;25.80;51.10
70807;DHT22;58882;52.170;5.386;2023-08-08T08:21:34;25.90;50.40
70807;DHT22;58882;52.170;5.386;2023-08-08T08:24:01;26.00;50.40
70807;DHT22;58882;52.170;5.386;2023-08-08T08:26:28;26.20;49.80
70807;DHT22;58882;52.170;5.386;2023-08-08T08:28:55;26.40;49.60
70807;DHT22;58882;52.170;5.386;2023-08-08T08:31:22;26.70;49.40
70807;DHT22;58882;52.170;5.386;2023-08-08T08:33:49;26.90;49.00
70807;DHT22;58882;52.170;5.386;2023-08-08T08:36:16;27.10;48.70
70807;DHT22;58882;52.170;5.386;2023-08-08T08:38:43;27.30;48.30
70807;DHT22;58882;52.170;5.386;2023-08-08T08:41:11;27.30;47.30
70807;DHT22;58882;52.170;5.386;2023-08-08T08:43:41;27.30;47.50
70807;DHT22;58882;52.170;5.386;2023-08-08T08:46:11;27.20;45.80
70807;DHT22;58882;52.170;5.386;2023-08-08T08:48:38;27.00;46.60
70807;DHT22;58882;52.170;5.386;2023-08-08T08:51:05;26.80;47.20
70807;DHT22;58882;52.170;5.386;2023-08-08T08:53:32;26.50;47.60
70807;DHT22;58882;52.170;5.386;2023-08-08T08:56:06;26.30;47.90
70807;DHT22;58882;52.170;5.386;2023-08-08T08:58:33;26.00;48.10
70807;DHT22;58882;52.170;5.386;2023-08-08T09:01:00;25.70;48.20
70807;DHT22;58882;52.170;5.386;2023-08-08T09:03:27;25.40;48.40
70807;DHT22;58882;52.170;5.386;2023-08-08T09:05:54;25.20;49.40
70807;DHT22;58882;52.170;5.386;2023-08-08T09:08:22;25.10;49.40
70807;DHT22;58882;52.170;5.386;2023-08-08T09:10:49;25.10;49.70
70807;DHT22;58882;52.170;5.386;2023-08-08T09:13:17;24.90;50.00
70807;DHT22;58882;52.170;5.386;2023-08-08T09:15:47;24.90;50.20
70807;DHT22;58882;52.170;5.386;2023-08-08T09:18:14;24.80;49.80
70807;DHT22;58882;52.170;5.386;2023-08-08T09:20:41;24.80;50.70
70807;DHT22;58882;52.170;5.386;2023-08-08T09:23:09;24.80;50.10
70807;DHT22;58882;52.170;5.386;2023-08-08T09:25:35;24.80;50.30
70807;DHT22;58882;52.170;5.386;2023-08-08T09:28:02;24.90;49.60
70807;DHT22;58882;52.170;5.386;2023-08-08T09:30:29;24.90;49.70
70807;DHT22;58882;52.170;5.386;2023-08-08T09:33:03;25.20;49.90
70807;DHT22;58882;52.170;5.386;2023-08-08T09:35:30;25.50;49.30
70807;DHT22;58882;52.170;5.386;2023-08-08T09:37:57;25.80;48.70
70807;DHT22;58882;52.170;5.386;2023-08-08T09:40:24;26.10;48.10
70807;DHT22;58882;52.170;5.386;2023-08-08T09:42:52;26.40;48.30
70807;DHT22;58882;52.170;5.386;2023-08-08T09:45:20;26.60;48.00
70807;DHT22;58882;52.170;5.386;2023-08-08T09:47:49;26.60;47.50
70807;DHT22;58882;52.170;5.386;2023-08-08T09:50:17;26.60;47.50
70807;DHT22;58882;52.170;5.386;2023-08-08T09:52:46;26.40;47.80
70807;DHT22;58882;52.170;5.386;2023-08-08T09:55:14;26.20;47.00
70807;DHT22;58882;52.170;5.386;2023-08-08T09:57:41;25.90;46.40
70807;DHT22;58882;52.170;5.386;2023-08-08T10:00:09;25.70;47.70
70807;DHT22;58882;52.170;5.386;2023-08-08T10:02:44;25.50;48.60
70807;DHT22;58882;52.170;5.386;2023-08-08T10:05:14;25.40;49.10
70807;DHT22;58882;52.170;5.386;2023-08-08T10:07:41;25.60;49.20
70807;DHT22;58882;52.170;5.386;2023-08-08T10:10:09;25.80;49.30
70807;DHT22;58882;52.170;5.386;2023-08-08T10:12:39;26.10;48.90
70807;DHT22;58882;52.170;5.386;2023-08-08T10:15:07;26.30;48.40
70807;DHT22;58882;52.170;5.386;2023-08-08T10:17:38;26.30;48.60
70807;DHT22;58882;52.170;5.386;2023-08-08T10:20:08;26.50;48.70
70807;DHT22;58882;52.170;5.386;2023-08-08T10:22:45;26.90;48.10
70807;DHT22;58882;52.170;5.386;2023-08-08T10:25:26;27.20;47.50
70807;DHT22;58882;52.170;5.386;2023-08-08T10:28:10;27.40;46.00
70807;DHT22;58882;52.170;5.386;2023-08-08T10:31:15;27.30;43.40
70807;DHT22;58882;52.170;5.386;2023-08-08T10:33:43;27.00;43.90
70807;DHT22;58882;52.170;5.386;2023-08-08T10:36:10;26.80;45.00
70807;DHT22;58882;52.170;5.386;2023-08-08T10:38:41;26.60;45.80
70807;DHT22;58882;52.170;5.386;2023-08-08T10:41:08;26.40;46.60
70807;DHT22;58882;52.170;5.386;2023-08-08T10:43:36;26.50;47.10
70807;DHT22;58882;52.170;5.386;2023-08-08T10:46:04;26.60;46.40
70807;DHT22;58882;52.170;5.386;2023-08-08T10:48:54;26.50;44.70
70807;DHT22;58882;52.170;5.386;2023-08-08T10:51:22;26.40;44.10
70807;DHT22;58882;52.170;5.386;2023-08-08T10:53:52;26.30;45.20
70807;DHT22;58882;52.170;5.386;2023-08-08T10:56:19;26.10;46.30
70807;DHT22;58882;52.170;5.386;2023-08-08T10:58:48;26.00;45.60
70807;DHT22;58882;52.170;5.386;2023-08-08T11:01:16;25.90;46.70
70807;DHT22;58882;52.170;5.386;2023-08-08T11:03:44;25.70;46.20
70807;DHT22;58882;52.170;5.386;2023-08-08T11:06:11;25.60;46.20
70807;DHT22;58882;52.170;5.386;2023-08-08T11:08:38;25.50;47.70
70807;DHT22;58882;52.170;5.386;2023-08-08T11:11:05;25.40;48.40
70807;DHT22;58882;52.170;5.386;2023-08-08T11:13:33;25.50;48.80
70807;DHT22;58882;52.170;5.386;2023-08-08T11:16:00;25.50;47.90
70807;DHT22;58882;52.170;5.386;2023-08-08T11:18:30;25.50;48.20
70807;DHT22;58882;52.170;5.386;2023-08-08T11:20:57;25.60;48.70
70807;DHT22;58882;52.170;5.386;2023-08-08T11:23:46;25.60;48.80
70807;DHT22;58882;52.170;5.386;2023-08-08T11:26:13;25.60;48.70
70807;DHT22;58882;52.170;5.386;2023-08-08T11:28:49;25.60;48.10
70807;DHT22;58882;52.170;5.386;2023-08-08T11:31:21;25.50;48.10
70807;DHT22;58882;52.170;5.386;2023-08-08T11:33:48;25.50;48.70
70807;DHT22;58882;52.170;5.386;2023-08-08T11:36:16;25.60;48.50
70807;DHT22;58882;52.170;5.386;2023-08-08T11:38:43;25.60;48.60
70807;DHT22;58882;52.170;5.386;2023-08-08T11:41:10;25.70;48.50
70807;DHT22;58882;52.170;5.386;2023-08-08T11:43:41;25.70;48.50
70807;DHT22;58882;52.170;5.386;2023-08-08T11:46:14;25.70;49.10
70807;DHT22;58882;52.170;5.386;2023-08-08T11:48:42;25.80;48.30
70807;DHT22;58882;52.170;5.386;2023-08-08T11:51:09;25.80;47.90
70807;DHT22;58882;52.170;5.386;2023-08-08T11:53:36;25.70;48.20
70807;DHT22;58882;52.170;5.386;2023-08-08T11:56:14;25.70;48.10
70807;DHT22;58882;52.170;5.386;2023-08-08T11:58:41;25.60;48.50
70807;DHT22;58882;52.170;5.386;2023-08-08T12:01:09;25.60;47.70
70807;DHT22;58882;52.170;5.386;2023-08-08T12:03:36;25.50;47.90
70807;DHT22;58882;52.170;5.386;2023-08-08T12:06:15;25.40;46.90
70807;DHT22;58882;52.170;5.386;2023-08-08T12:08:43;25.40;47.20
70807;DHT22;58882;52.170;5.386;2023-08-08T12:11:12;25.20;47.00
70807;DHT22;58882;52.170;5.386;2023-08-08T12:13:41;25.20;48.40
70807;DHT22;58882;52.170;5.386;2023-08-08T12:16:10;25.10;47.40
70807;DHT22;58882;52.170;5.386;2023-08-08T12:18:43;25.10;48.00
70807;DHT22;58882;52.170;5.386;2023-08-08T12:21:11;25.10;48.20
70807;DHT22;58882;52.170;5.386;2023-08-08T12:23:38;25.00;47.20
70807;DHT22;58882;52.170;5.386;2023-08-08T12:26:05;25.00;47.40
70807;DHT22;58882;52.170;5.386;2023-08-08T12:28:33;25.00;48.60
70807;DHT22;58882;52.170;5.386;2023-08-08T12:31:00;24.90;49.10
70807;DHT22;58882;52.170;5.386;2023-08-08T12:33:27;24.90;49.50
70807;DHT22;58882;52.170;5.386;2023-08-08T12:35:54;24.90;49.70
70807;DHT22;58882;52.170;5.386;2023-08-08T12:38:21;24.90;49.90
70807;DHT22;58882;52.170;5.386;2023-08-08T12:40:48;24.80;50.10
70807;DHT22;58882;52.170;5.386;2023-08-08T12:43:15;24.80;50.00
70807;DHT22;58882;52.170;5.386;2023-08-08T12:45:46;24.80;50.20
70807;DHT22;58882;52.170;5.386;2023-08-08T12:48:13;24.80;49.90
70807;DHT22;58882;52.170;5.386;2023-08-08T12:50:40;24.70;48.50
70807;DHT22;58882;52.170;5.386;2023-08-08T12:53:07;24.70;48.90
70807;DHT22;58882;52.170;5.386;2023-08-08T12:55:34;24.60;47.00
70807;DHT22;58882;52.170;5.386;2023-08-08T12:58:02;24.50;48.30
70807;DHT22;58882;52.170;5.386;2023-08-08T13:00:29;24.40;49.60
70807;DHT22;58882;52.170;5.386;2023-08-08T13:02:56;24.40;47.70
70807;DHT22;58882;52.170;5.386;2023-08-08T13:05:24;24.30;49.00
70807;DHT22;58882;52.170;5.386;2023-08-08T13:07:50;24.30;48.50
70807;DHT22;58882;52.170;5.386;2023-08-08T13:10:17;24.30;49.00
70807;DHT22;58882;52.170;5.386;2023-08-08T13:12:49;24.30;50.00
70807;DHT22;58882;52.170;5.386;2023-08-08T13:15:16;24.20;50.60
70807;DHT22;58882;52.170;5.386;2023-08-08T13:17:44;24.20;50.70
70807;DHT22;58882;52.170;5.386;2023-08-08T13:20:11;24.10;49.80
70807;DHT22;58882;52.170;5.386;2023-08-08T13:22:39;24.10;49.20
70807;DHT22;58882;52.170;5.386;2023-08-08T13:25:06;24.00;48.40
70807;DHT22;58882;52.170;5.386;2023-08-08T13:27:33;24.00;47.30
70807;DHT22;58882;52.170;5.386;2023-08-08T13:30:00;23.90;47.00
70807;DHT22;58882;52.170;5.386;2023-08-08T13:32:27;23.90;46.10
70807;DHT22;58882;52.170;5.386;2023-08-08T13:34:55;23.80;48.10
70807;DHT22;58882;52.170;5.386;2023-08-08T13:37:21;23.80;48.00
70807;DHT22;58882;52.170;5.386;2023-08-08T13:39:48;23.80;46.60
70807;DHT22;58882;52.170;5.386;2023-08-08T13:42:15;23.80;46.90
70807;DHT22;58882;52.170;5.386;2023-08-08T13:44:42;23.70;46.60
70807;DHT22;58882;52.170;5.386;2023-08-08T13:47:09;23.60;48.10
70807;DHT22;58882;52.170;5.386;2023-08-08T13:49:36;23.60;48.60
70807;DHT22;58882;52.170;5.386;2023-08-08T13:52:03;23.50;48.00
70807;DHT22;58882;52.170;5.386;2023-08-08T13:54:30;23.50;48.50
70807;DHT22;58882;52.170;5.386;2023-08-08T13:56:57;23.40;48.50
70807;DHT22;58882;52.170;5.386;2023-08-08T13:59:24;23.40;47.70
70807;DHT22;58882;52.170;5.386;2023-08-08T14:01:51;23.40;49.20
70807;DHT22;58882;52.170;5.386;2023-08-08T14:04:18;23.40;49.20
70807;DHT22;58882;52.170;5.386;2023-08-08T14:06:45;23.30;50.70
70807;DHT22;58882;52.170;5.386;2023-08-08T14:09:12;23.30;49.50
70807;DHT22;58882;52.170;5.386;2023-08-08T14:11:40;23.30;48.60
70807;DHT22;58882;52.170;5.386;2023-08-08T14:14:07;23.20;48.90
70807;DHT22;58882;52.170;5.386;2023-08-08T14:16:34;23.20;50.10
70807;DHT22;58882;52.170;5.386;2023-08-08T14:19:01;23.20;49.50
70807;DHT22;58882;52.170;5.386;2023-08-08T14:21:28;23.20;49.20
70807;DHT22;58882;52.170;5.386;2023-08-08T14:23:55;23.10;48.00
70807;DHT22;58882;52.170;5.386;2023-08-08T14:26:22;23.10;47.20
70807;DHT22;58882;52.170;5.386;2023-08-08T14:28:48;23.10;47.40
70807;DHT22;58882;52.170;5.386;2023-08-08T14:31:15;23.10;47.20
70807;DHT22;58882;52.170;5.386;2023-08-08T14:33:42;23.00;46.60
70807;DHT22;58882;52.170;5.386;2023-08-08T14:36:09;23.00;47.60
70807;DHT22;58882;52.170;5.386;2023-08-08T14:38:36;23.00;48.60
70807;DHT22;58882;52.170;5.386;2023-08-08T14:41:03;22.90;48.90
70807;DHT22;58882;52.170;5.386;2023-08-08T14:43:30;22.90;47.50
70807;DHT22;58882;52.170;5.386;2023-08-08T14:45:57;22.90;47.00
70807;DHT22;58882;52.170;5.386;2023-08-08T14:48:24;22.90;46.50
70807;DHT22;58882;52.170;5.386;2023-08-08T14:50:51;22.90;46.20
70807;DHT22;58882;52.170;5.386;2023-08-08T14:53:18;22.80;47.20
70807;DHT22;58882;52.170;5.386;2023-08-08T14:55:45;22.80;49.20
70807;DHT22;58882;52.170;5.386;2023-08-08T14:58:14;22.80;47.80
70807;DHT22;58882;52.170;5.386;2023-08-08T15:00:41;22.70;47.50
70807;DHT22;58882;52.170;5.386;2023-08-08T15:03:09;22.70;47.40
70807;DHT22;58882;52.170;5.386;2023-08-08T15:05:37;22.70;47.20
70807;DHT22;58882;52.170;5.386;2023-08-08T15:08:04;22.70;47.40
70807;DHT22;58882;52.170;5.386;2023-08-08T15:10:30;22.70;49.20
70807;DHT22;58882;52.170;5.386;2023-08-08T15:13:01;22.70;50.10
70807;DHT22;58882;52.170;5.386;2023-08-08T15:15:28;22.70;48.60
70807;DHT22;58882;52.170;5.386;2023-08-08T15:17:56;22.70;50.50
70807;DHT22;58882;52.170;5.386;2023-08-08T15:20:23;22.70;48.70
70807;DHT22;58882;52.170;5.386;2023-08-08T15:22:50;22.70;49.80
70807;DHT22;58882;52.170;5.386;2023-08-08T15:25:17;22.60;50.80
70807;DHT22;58882;52.170;5.386;2023-08-08T15:27:44;22.70;51.70
70807;DHT22;58882;52.170;5.386;2023-08-08T15:30:11;22.70;52.10
70807;DHT22;58882;52.170;5.386;2023-08-08T15:32:38;22.60;51.50
70807;DHT22;58882;52.170;5.386;2023-08-08T15:35:05;22.60;50.40